SBOSBO BKK / VTBS
Speedbird OnlineSpeedbird Online BKK / VTBS

Suvarnabhumi Airport
14:34 31°C

Location Bangkok, Thailand
Latitude: 13.681099891662598
Longitude: 100.74700164794922
Web Wikipedia
Altitude 2 Meter / 5 Feet
Distance 9,537 KM / 5,926 Miles
from London.
Time Zone UTC +7 hours (Asia/Bangkok)
Codes IATA: BKK
ICAO: VTBS
Currency £1 equals THB 42.42
Runways
RunwayLength (m)Surface
01L3700Asphalt
01R4000Asphalt
19L4000Asphalt
19R3700Asphalt
Radio
TypeDescriptionFrequency
ATIS127.8
GROUND (EAST)121.65
GROUND (MAIN)121.75
GROUND (WEST)121.95
TOWER (01L/19R)119
TOWER (01R/19L)118.2
Live ATC
METAR VTBS 060700Z 08006KT 030V130 9999 FEW020 31/23 Q1008 NOSIG
TAF TAF VTBS 060500Z 0606/0712 10008KT 9999 FEW020 TEMPO 0614/0620 VRB15KT 3000 TSRA FEW018CB SCT030 BKN100 BECMG 0622/0624 01005KT BECMG 0703/0705 09008KT
Weather As Of 06 Oct 2022 14:34
Description Few clouds
Wind 11 km/h from East (80°)
Cloud Cover 20%
Precipitation Rain: none, Snow: none
Sunrise 06:06
Sunset 18:03
Lounges Qatar Airways Premium Lounge TEMPORARILY CLOSED, International
Miracle Lounge, International Departure Terminal Level 3
Thai Airways Royal Orchid/Silk Lounges, Main Teriminal
Air France - KLM Lounge, Main Terminal
Cathay Pacific Lounge (Temporarily Closed), Main Terminal
Japan Airlines Sakura Lounge, Main Terminal


© 2017-2022 Speedbird Online